YEM weather

Manitoulin East Municipal Airport
Manitowaning, Ontario, Canada

Public forecast

Using degrees Celsius for public forecast. Weather courtesy of forecast.io.

Closest aviation weather report (METAR) to Manitoulin East Municipal Airport

Closest report is Gore Bay Manitoulin Airport, 29.8 nm (55.2 km) W. Retrieved 2019/10/20 05:00 UTC (24 minutes ago):

CYZE 200500Z AUTO 16008KT 9SM BKN170 BKN190 10/08 A2981 RMK SLP099

Closest aviation forecast (TAF) to Manitoulin East Municipal Airport

Forecast is more than 6 hours old.

Closest forecast is Gore Bay Manitoulin Airport, 29.8 nm (55.2 km) W. Retrieved 2019/10/19 20:00 UTC (9 hours ago):

TAF CYZE 191938Z 1920/1922 17010G20KT P6SM FEW020 SCT150 RMK FCST BASED ON AUTO OBS NXT FCST WILL BE ISSUED AT 200945Z